createdAt,value
2023-03-01T00:01:08.744Z,1.00
2023-03-01T00:03:36.284Z,1.00
2023-03-01T00:06:04.461Z,1.00
2023-03-01T00:08:31.525Z,1.00
2023-03-01T00:11:06.779Z,1.00
2023-03-01T00:13:34.505Z,1.00
2023-03-01T00:16:04.707Z,1.00
2023-03-01T00:18:31.532Z,0.90
2023-03-01T00:20:58.407Z,0.90
2023-03-01T00:23:26.278Z,1.00
2023-03-01T00:25:53.470Z,0.90
2023-03-01T00:28:21.050Z,0.90
2023-03-01T00:30:49.212Z,1.00
2023-03-01T00:33:16.017Z,0.90
2023-03-01T00:35:42.910Z,1.00
2023-03-01T00:38:09.910Z,1.00
2023-03-01T00:40:37.466Z,0.90
2023-03-01T00:43:05.015Z,0.90
2023-03-01T00:45:32.330Z,0.90
2023-03-01T00:47:59.405Z,0.80
2023-03-01T00:50:26.626Z,0.90
2023-03-01T00:52:55.505Z,0.90
2023-03-01T00:55:22.833Z,0.90
2023-03-01T00:57:49.700Z,0.90
2023-03-01T01:00:16.976Z,0.90
2023-03-01T01:02:43.938Z,0.90
2023-03-01T01:05:10.955Z,0.90
2023-03-01T01:07:38.100Z,0.80
2023-03-01T01:10:05.293Z,0.80
2023-03-01T01:12:32.629Z,0.90
2023-03-01T01:14:59.736Z,0.90
2023-03-01T01:17:26.536Z,0.90
2023-03-01T01:19:53.285Z,0.90
2023-03-01T01:22:20.106Z,0.90
2023-03-01T01:24:46.967Z,0.80
2023-03-01T01:27:13.765Z,0.80
2023-03-01T01:29:40.524Z,0.80
2023-03-01T01:32:07.341Z,0.80
2023-03-01T01:34:34.120Z,0.80
2023-03-01T01:37:03.787Z,0.80
2023-03-01T01:39:31.025Z,0.80
2023-03-01T01:41:58.156Z,0.80
2023-03-01T01:44:27.389Z,0.80
2023-03-01T01:47:01.133Z,0.80
2023-03-01T01:49:33.716Z,0.80
2023-03-01T01:52:23.288Z,0.80
2023-03-01T01:54:55.725Z,0.80
2023-03-01T01:57:27.657Z,0.80
2023-03-01T01:59:59.729Z,0.80
2023-03-01T02:02:27.499Z,0.80
2023-03-01T02:05:04.650Z,0.80
2023-03-01T02:07:31.617Z,0.80
2023-03-01T02:09:59.303Z,0.80
2023-03-01T02:12:27.149Z,0.80
2023-03-01T02:14:53.922Z,0.80
2023-03-01T02:17:21.885Z,0.80
2023-03-01T02:19:57.957Z,0.70
2023-03-01T02:22:33.441Z,0.70
2023-03-01T02:25:09.439Z,0.80
2023-03-01T02:28:08.832Z,0.70
2023-03-01T02:30:36.639Z,0.70
2023-03-01T02:33:05.309Z,0.70
2023-03-01T02:35:38.544Z,0.70
2023-03-01T02:38:08.912Z,0.70
2023-03-01T02:40:39.097Z,0.60
2023-03-01T02:43:09.925Z,0.60
2023-03-01T02:45:36.801Z,0.60
2023-03-01T02:48:03.670Z,0.60
2023-03-01T02:50:42.400Z,0.60
2023-03-01T02:53:17.275Z,0.60
2023-03-01T02:55:44.545Z,0.60
2023-03-01T02:58:11.620Z,0.60
2023-03-01T03:00:46.572Z,0.60
2023-03-01T03:03:22.361Z,0.60
2023-03-01T03:05:49.551Z,0.60
2023-03-01T03:08:22.747Z,0.60
2023-03-01T03:10:49.520Z,0.50
2023-03-01T03:13:16.663Z,0.50
2023-03-01T03:15:44.595Z,0.50
2023-03-01T03:18:14.925Z,0.50
2023-03-01T03:20:43.417Z,0.50
2023-03-01T03:23:10.514Z,0.50
2023-03-01T03:25:40.063Z,0.40
2023-03-01T03:28:11.292Z,0.50
2023-03-01T03:30:42.776Z,0.50
2023-03-01T03:33:13.311Z,0.40
2023-03-01T03:35:44.058Z,0.40
2023-03-01T03:38:23.056Z,0.40
2023-03-01T03:41:04.912Z,0.40
2023-03-01T03:43:34.140Z,0.40
2023-03-01T03:46:01.561Z,0.30
2023-03-01T03:48:28.709Z,0.30
2023-03-01T03:50:57.169Z,0.30
2023-03-01T03:53:26.097Z,0.30
2023-03-01T03:55:53.373Z,0.30
2023-03-01T03:58:22.167Z,0.30
2023-03-01T04:00:52.561Z,0.30
2023-03-01T04:03:20.872Z,0.20
2023-03-01T04:05:48.998Z,0.20
2023-03-01T04:08:15.884Z,0.20
2023-03-01T04:10:48.377Z,0.20
2023-03-01T04:13:17.960Z,0.20
2023-03-01T04:15:44.807Z,0.20
2023-03-01T04:18:16.338Z,0.10
2023-03-01T04:20:43.901Z,0.10
2023-03-01T04:23:20.977Z,0.10
2023-03-01T04:25:56.218Z,0.10
2023-03-01T04:28:35.235Z,0.10
2023-03-01T04:31:16.640Z,0.10
2023-03-01T04:33:49.107Z,0.00
2023-03-01T04:36:17.324Z,0.00
2023-03-01T04:38:48.383Z,-0.10
2023-03-01T04:41:20.180Z,-0.10
2023-03-01T04:43:46.975Z,-0.10
2023-03-01T04:46:16.765Z,-0.10
2023-03-01T04:48:45.419Z,-0.20
2023-03-01T04:51:15.772Z,-0.20
2023-03-01T04:53:43.337Z,-0.20
2023-03-01T04:56:10.526Z,-0.30
2023-03-01T04:58:37.475Z,-0.30
2023-03-01T05:01:16.495Z,-0.30
2023-03-01T05:03:45.085Z,-0.30
2023-03-01T05:06:12.725Z,-0.40
2023-03-01T05:08:40.653Z,-0.30
2023-03-01T05:11:09.925Z,-0.30
2023-03-01T05:13:40.629Z,-0.40
2023-03-01T05:16:12.423Z,-0.50
2023-03-01T05:18:40.265Z,-0.50
2023-03-01T05:21:09.797Z,-0.50
2023-03-01T05:23:37.319Z,-0.50
2023-03-01T05:26:09.427Z,-0.50
2023-03-01T05:28:38.947Z,-0.50
2023-03-01T05:31:10.653Z,-0.60
2023-03-01T05:33:41.473Z,-0.60
2023-03-01T05:36:10.657Z,-0.60
2023-03-01T05:38:37.852Z,-0.70
2023-03-01T05:41:05.008Z,-0.70
2023-03-01T05:43:35.733Z,-0.70
2023-03-01T05:46:07.717Z,-0.60
2023-03-01T05:48:34.506Z,-0.70
2023-03-01T05:51:01.765Z,-0.70
2023-03-01T05:53:28.669Z,-0.70
2023-03-01T05:55:56.670Z,-0.70
2023-03-01T05:58:23.468Z,-0.70
2023-03-01T06:00:52.882Z,-0.80
2023-03-01T06:03:20.783Z,-0.70
2023-03-01T06:05:47.727Z,-0.70
2023-03-01T06:08:15.048Z,-0.80
2023-03-01T06:10:42.103Z,-0.80
2023-03-01T06:13:08.928Z,-0.80
2023-03-01T06:15:35.808Z,-0.80
2023-03-01T06:18:02.796Z,-0.80
2023-03-01T06:20:30.343Z,-0.80
2023-03-01T06:22:57.954Z,-0.80
2023-03-01T06:25:26.573Z,-0.80
2023-03-01T06:27:53.615Z,-0.70
2023-03-01T06:30:22.312Z,-0.70
2023-03-01T06:32:49.592Z,-0.70
2023-03-01T06:35:20.478Z,-0.70
2023-03-01T06:37:48.928Z,-0.70
2023-03-01T06:40:16.899Z,-0.70
2023-03-01T06:42:50.030Z,-0.70
2023-03-01T06:45:18.492Z,-0.70
2023-03-01T06:47:45.316Z,-0.70
2023-03-01T06:50:13.146Z,-0.70
2023-03-01T06:52:40.137Z,-0.70
2023-03-01T06:55:07.650Z,-0.70
2023-03-01T06:57:34.505Z,-0.70
2023-03-01T07:00:01.375Z,-0.70
2023-03-01T07:02:28.207Z,-0.70
2023-03-01T07:04:55.082Z,-0.70
2023-03-01T07:07:21.946Z,-0.60
2023-03-01T07:09:50.458Z,-0.60
2023-03-01T07:12:17.638Z,-0.60
2023-03-01T07:14:45.573Z,-0.50
2023-03-01T07:17:12.384Z,-0.50
2023-03-01T07:19:39.220Z,-0.50
2023-03-01T07:22:08.746Z,-0.50
2023-03-01T07:24:35.551Z,-0.40
2023-03-01T07:27:02.357Z,-0.50
2023-03-01T07:29:29.885Z,-0.40
2023-03-01T07:31:56.822Z,-0.40
2023-03-01T07:34:23.721Z,-0.40
2023-03-01T07:36:50.991Z,-0.30
2023-03-01T07:39:19.446Z,-0.30
2023-03-01T07:41:46.613Z,-0.20
2023-03-01T07:44:13.384Z,-0.10
2023-03-01T07:46:40.184Z,-0.10
2023-03-01T07:49:07.270Z,-0.10
2023-03-01T07:51:34.095Z,-0.10
2023-03-01T07:54:01.102Z,0.00
2023-03-01T07:56:27.927Z,0.00
2023-03-01T07:58:54.703Z,0.10
2023-03-01T08:01:22.862Z,0.10
2023-03-01T08:03:49.699Z,0.20
2023-03-01T08:06:17.859Z,0.30
2023-03-01T08:08:45.072Z,0.30
2023-03-01T08:11:13.980Z,0.30
2023-03-01T08:13:41.180Z,0.20
2023-03-01T08:16:17.248Z,0.20
2023-03-01T08:18:44.786Z,0.20
2023-03-01T08:21:17.009Z,0.40
2023-03-01T08:23:44.338Z,0.40
2023-03-01T08:26:13.071Z,0.50
2023-03-01T08:28:40.472Z,0.50
2023-03-01T08:31:25.702Z,0.50
2023-03-01T08:33:58.907Z,0.60
2023-03-01T08:36:31.094Z,0.60
2023-03-01T08:39:00.140Z,0.70
2023-03-01T08:41:27.539Z,0.60
2023-03-01T08:43:59.605Z,0.80
2023-03-01T08:46:38.640Z,0.80
2023-03-01T08:49:10.272Z,0.90
2023-03-01T08:51:39.740Z,0.80
2023-03-01T08:54:19.101Z,0.80
2023-03-01T08:56:46.328Z,1.00
2023-03-01T08:59:14.607Z,1.00
2023-03-01T09:01:44.288Z,1.10
2023-03-01T09:04:12.494Z,1.10
2023-03-01T09:06:39.613Z,1.20
2023-03-01T09:09:07.871Z,1.20
2023-03-01T09:11:34.743Z,1.30
2023-03-01T09:14:01.603Z,1.40
2023-03-01T09:16:31.097Z,1.40
2023-03-01T09:18:58.130Z,1.30
2023-03-01T09:21:38.934Z,1.40
2023-03-01T09:24:17.012Z,1.40
2023-03-01T09:26:44.124Z,1.40
2023-03-01T09:29:11.159Z,1.40
2023-03-01T09:31:38.158Z,1.50
2023-03-01T09:34:06.101Z,1.60
2023-03-01T09:36:34.366Z,1.50
2023-03-01T09:39:01.810Z,1.60
2023-03-01T09:42:03.310Z,1.40
2023-03-01T09:44:45.286Z,1.40
2023-03-01T09:47:30.929Z,1.50
2023-03-01T09:50:18.068Z,1.80
2023-03-01T09:52:57.094Z,2.00
2023-03-01T09:55:45.113Z,2.00
2023-03-01T09:58:43.084Z,2.00
2023-03-01T10:01:35.773Z,2.10
2023-03-01T10:04:24.142Z,2.30
2023-03-01T10:07:36.658Z,2.30
2023-03-01T10:10:08.393Z,2.30
2023-03-01T10:12:42.323Z,2.60
2023-03-01T10:15:19.143Z,2.70
2023-03-01T10:18:04.182Z,2.90
2023-03-01T10:21:03.153Z,3.40
2023-03-01T10:23:39.201Z,4.30
2023-03-01T10:26:32.062Z,4.80
2023-03-01T10:29:11.387Z,5.40
2023-03-01T10:32:00.033Z,5.60
2023-03-01T10:34:33.055Z,5.50
2023-03-01T10:37:16.889Z,5.40
2023-03-01T10:39:58.886Z,5.90
2023-03-01T10:42:32.782Z,6.40
2023-03-01T10:45:17.059Z,6.10
2023-03-01T10:47:43.984Z,6.00
2023-03-01T10:50:22.547Z,5.40
2023-03-01T10:53:04.778Z,5.50
2023-03-01T10:55:38.766Z,5.70
2023-03-01T10:58:23.229Z,6.80
2023-03-01T11:00:59.984Z,8.00
2023-03-01T11:03:31.927Z,8.20
2023-03-01T11:07:02.917Z,8.60
2023-03-01T11:09:28.474Z,9.20
2023-03-01T11:12:01.851Z,9.40
2023-03-01T11:15:03.356Z,9.70
2023-03-01T11:17:53.171Z,9.70
2023-03-01T11:21:08.816Z,9.60
2023-03-01T11:23:39.554Z,10.20
2023-03-01T11:29:27.700Z,9.60
2023-03-01T11:36:21.901Z,10.10
2023-03-01T11:39:27.659Z,9.30
2023-03-01T11:49:27.758Z,9.70
2023-03-01T11:52:55.091Z,9.80
2023-03-01T11:58:53.782Z,8.60
2023-03-01T12:01:33.806Z,9.50
2023-03-01T12:05:26.074Z,10.20
2023-03-01T12:19:15.493Z,12.30
2023-03-01T12:26:18.896Z,12.10
2023-03-01T12:43:36.547Z,13.50
2023-03-01T13:05:52.988Z,12.30
2023-03-01T13:12:45.912Z,14.10
2023-03-01T13:24:49.446Z,12.90
2023-03-01T13:27:40.141Z,12.00
2023-03-01T13:34:26.626Z,12.40
2023-03-01T13:44:57.366Z,12.90
2023-03-01T13:48:03.840Z,14.00
2023-03-01T13:51:09.598Z,13.50
2023-03-01T13:54:16.292Z,13.50
2023-03-01T13:56:45.182Z,13.70
2023-03-01T13:59:39.251Z,13.40
2023-03-01T14:10:29.754Z,14.00
2023-03-01T14:13:37.200Z,13.50
2023-03-01T14:16:35.882Z,13.70
2023-03-01T14:19:15.924Z,14.40
2023-03-01T14:21:45.333Z,13.80
2023-03-01T14:24:28.588Z,13.90
2023-03-01T14:26:55.829Z,14.00
2023-03-01T14:33:43.206Z,13.60
2023-03-01T14:36:30.140Z,13.60
2023-03-01T14:39:05.775Z,13.50
2023-03-01T14:41:36.955Z,13.60
2023-03-01T14:44:15.983Z,13.00
2023-03-01T14:46:48.702Z,12.60
2023-03-01T14:52:48.287Z,12.30
2023-03-01T14:56:08.849Z,11.80
2023-03-01T15:02:21.895Z,11.50
2023-03-01T15:46:38.868Z,10.60
2023-03-01T16:03:42.814Z,10.00
2023-03-01T16:10:13.577Z,9.50
2023-03-01T16:12:48.328Z,9.30
2023-03-01T16:29:51.329Z,8.60
2023-03-01T16:39:15.324Z,7.60
2023-03-01T16:42:28.115Z,7.30
2023-03-01T16:45:41.943Z,6.90
2023-03-01T16:48:11.808Z,6.60
2023-03-01T16:54:38.336Z,6.30
2023-03-01T17:04:04.052Z,5.70
2023-03-01T17:06:30.875Z,5.60
2023-03-01T17:08:58.410Z,5.50
2023-03-01T17:11:25.666Z,5.40
2023-03-01T17:13:52.606Z,5.30
2023-03-01T17:16:20.835Z,5.20
2023-03-01T17:18:48.141Z,5.20
2023-03-01T17:21:15.810Z,5.20
2023-03-01T17:23:45.078Z,5.10
2023-03-01T17:26:13.671Z,5.10
2023-03-01T17:28:41.177Z,5.00
2023-03-01T17:31:08.326Z,4.90
2023-03-01T17:33:35.845Z,5.00
2023-03-01T17:36:02.818Z,4.90
2023-03-01T17:38:29.810Z,4.90
2023-03-01T17:41:00.020Z,4.90
2023-03-01T17:43:27.785Z,4.80
2023-03-01T17:45:55.699Z,4.80
2023-03-01T17:48:22.863Z,4.80
2023-03-01T17:50:49.716Z,4.80
2023-03-01T17:53:16.548Z,4.80
2023-03-01T17:55:44.910Z,4.80
2023-03-01T17:58:14.098Z,4.70
2023-03-01T18:00:40.946Z,4.60
2023-03-01T18:03:08.574Z,4.60
2023-03-01T18:05:38.124Z,4.50
2023-03-01T18:08:05.294Z,4.40
2023-03-01T18:10:33.552Z,4.40
2023-03-01T18:13:00.446Z,4.30
2023-03-01T18:15:27.555Z,4.20
2023-03-01T18:17:54.655Z,4.20
2023-03-01T18:20:21.937Z,4.10
2023-03-01T18:22:49.758Z,4.10
2023-03-01T18:25:16.746Z,4.10
2023-03-01T18:27:43.581Z,4.00
2023-03-01T18:30:11.377Z,3.90
2023-03-01T18:32:39.722Z,3.90
2023-03-01T18:35:07.858Z,3.90
2023-03-01T18:37:34.749Z,3.80
2023-03-01T18:40:01.674Z,3.70
2023-03-01T18:42:28.680Z,3.70
2023-03-01T18:44:55.589Z,3.60
2023-03-01T18:47:22.573Z,3.50
2023-03-01T18:49:49.450Z,3.50
2023-03-01T18:52:16.876Z,3.40
2023-03-01T18:54:43.838Z,3.40
2023-03-01T18:57:10.725Z,3.40
2023-03-01T18:59:37.549Z,3.30
2023-03-01T19:02:04.760Z,3.20
2023-03-01T19:04:32.013Z,3.20
2023-03-01T19:07:02.412Z,3.20
2023-03-01T19:09:29.338Z,3.10
2023-03-01T19:11:58.966Z,3.10
2023-03-01T19:14:26.114Z,3.10
2023-03-01T19:16:53.476Z,3.10
2023-03-01T19:19:20.427Z,3.10
2023-03-01T19:21:59.475Z,3.20
2023-03-01T19:24:32.855Z,3.20
2023-03-01T19:27:00.030Z,3.20
2023-03-01T19:29:27.276Z,3.20
2023-03-01T19:32:06.771Z,3.20
2023-03-01T19:34:33.738Z,3.30
2023-03-01T19:37:00.712Z,3.30
2023-03-01T19:39:27.888Z,3.30
2023-03-01T19:41:55.524Z,3.30
2023-03-01T19:44:25.786Z,3.30
2023-03-01T19:46:58.119Z,3.30
2023-03-01T19:49:26.822Z,3.30
2023-03-01T19:51:53.974Z,3.30
2023-03-01T19:54:21.904Z,3.40
2023-03-01T19:56:50.118Z,3.40
2023-03-01T19:59:19.500Z,3.30
2023-03-01T20:01:46.874Z,3.30
2023-03-01T20:04:13.860Z,3.40
2023-03-01T20:06:41.697Z,3.30
2023-03-01T20:09:21.488Z,3.40
2023-03-01T20:11:50.242Z,3.50
2023-03-01T20:14:17.610Z,3.50
2023-03-01T20:16:44.717Z,3.60
2023-03-01T20:19:11.813Z,3.50
2023-03-01T20:21:39.144Z,3.50
2023-03-01T20:24:06.594Z,3.40
2023-03-01T20:26:34.012Z,3.40
2023-03-01T20:29:01.389Z,3.40
2023-03-01T20:31:29.933Z,3.40
2023-03-01T20:33:58.400Z,3.30
2023-03-01T20:36:25.610Z,3.30
2023-03-01T20:38:54.068Z,3.30
2023-03-01T20:41:21.209Z,3.20
2023-03-01T20:43:54.587Z,3.20
2023-03-01T20:46:23.894Z,3.10
2023-03-01T20:48:51.852Z,3.10
2023-03-01T20:51:19.375Z,3.10
2023-03-01T20:53:46.328Z,3.00
2023-03-01T20:56:16.132Z,3.00
2023-03-01T20:58:44.427Z,3.00
2023-03-01T21:01:16.414Z,2.90
2023-03-01T21:03:43.457Z,2.80
2023-03-01T21:06:10.707Z,2.80
2023-03-01T21:08:37.956Z,2.70
2023-03-01T21:11:06.454Z,2.70
2023-03-01T21:13:35.224Z,2.60
2023-03-01T21:16:07.893Z,2.60
2023-03-01T21:18:37.526Z,2.50
2023-03-01T21:21:07.517Z,2.40
2023-03-01T21:23:36.005Z,2.40
2023-03-01T21:26:08.556Z,2.30
2023-03-01T21:28:36.713Z,2.30
2023-03-01T21:31:12.409Z,2.40
2023-03-01T21:33:43.369Z,2.40
2023-03-01T21:36:11.104Z,2.40
2023-03-01T21:38:40.375Z,2.40
2023-03-01T21:41:12.053Z,2.40
2023-03-01T21:43:40.747Z,2.30
2023-03-01T21:46:13.126Z,2.30
2023-03-01T21:48:43.552Z,2.20
2023-03-01T21:51:12.948Z,2.20
2023-03-01T21:53:40.150Z,2.10
2023-03-01T21:56:07.563Z,2.10
2023-03-01T21:58:34.491Z,2.00
2023-03-01T22:01:11.030Z,1.90
2023-03-01T22:03:45.340Z,1.80
2023-03-01T22:06:28.219Z,1.80
2023-03-01T22:09:07.676Z,1.80
2023-03-01T22:11:38.066Z,1.80
2023-03-01T22:14:05.384Z,1.70
2023-03-01T22:16:35.373Z,1.70
2023-03-01T22:19:04.387Z,1.70
2023-03-01T22:21:31.365Z,1.70
2023-03-01T22:23:58.520Z,1.70
2023-03-01T22:26:29.012Z,1.60
2023-03-01T22:28:58.660Z,1.70
2023-03-01T22:31:27.429Z,1.60
2023-03-01T22:33:55.661Z,1.60
2023-03-01T22:36:22.882Z,1.60
2023-03-01T22:38:52.382Z,1.50
2023-03-01T22:41:19.258Z,1.50
2023-03-01T22:43:46.096Z,1.40
2023-03-01T22:46:15.727Z,1.40
2023-03-01T22:48:42.965Z,1.30
2023-03-01T22:51:24.170Z,1.30
2023-03-01T22:53:51.484Z,1.30
2023-03-01T22:56:23.869Z,1.30
2023-03-01T22:58:50.940Z,1.20
2023-03-01T23:01:21.822Z,1.20
2023-03-01T23:03:52.654Z,1.10
2023-03-01T23:06:24.086Z,1.10
2023-03-01T23:08:56.849Z,1.10
2023-03-01T23:11:26.170Z,1.10
2023-03-01T23:13:54.453Z,1.10
2023-03-01T23:16:26.565Z,1.10
2023-03-01T23:18:55.966Z,1.00
2023-03-01T23:21:23.223Z,1.00
2023-03-01T23:23:51.089Z,1.10
2023-03-01T23:26:23.526Z,1.10
2023-03-01T23:28:59.319Z,1.10
2023-03-01T23:31:30.256Z,1.10
2023-03-01T23:33:57.633Z,1.10
2023-03-01T23:36:27.423Z,1.10
2023-03-01T23:38:58.881Z,1.00
2023-03-01T23:41:28.800Z,1.00
2023-03-01T23:44:00.727Z,0.90
2023-03-01T23:46:31.074Z,0.90
2023-03-01T23:49:04.307Z,0.90
2023-03-01T23:51:31.692Z,0.80
2023-03-01T23:54:02.459Z,0.80
2023-03-01T23:56:38.619Z,0.80
2023-03-01T23:59:15.800Z,0.80
